< < Back
Terminal Aerodrome Forecast


Current Version              Previous Versions:   1  2  3  4  5  6  7  8  9  

Terminal Aerodrome Forecast

384
FTUS42 KFFC 222341
TAFATL
TAF
KATL 222341Z 2300/2406 09010KT P6SM BKN035
     FM230300 10008KT P6SM BKN025
     FM230800 08012KT 5SM -RA BR OVC008
     FM231400 10013G18KT 2SM SHRA BR OVC006 PROB30 2317/2321 2SM
      TSRA OVC015CB
     FM232300 15010G18KT 4SM BR OVC009
     FM240500 19007KT 4SM BR BKN008=



Latest METAR

713
SAUS70 KWBC 230700
MTRATL
METAR KATL 230652Z 09010KT 10SM -RA OVC017 11/02 A3015 RMK AO2 RAB27
SLP209 P0000 T01110022 $


USA.gov is the U.S. government's official web portal to all federal, state and local government web resources and services.